sensor_id;sensor_type;location;lat;lon;timestamp;temperature;humidity
3626;DHT22;1827;50.534;8.316;2022-07-29T00:00:42;17.40;97.50
3626;DHT22;1827;50.534;8.316;2022-07-29T00:03:12;17.40;97.30
3626;DHT22;1827;50.534;8.316;2022-07-29T00:05:41;17.30;97.70
3626;DHT22;1827;50.534;8.316;2022-07-29T00:08:08;17.30;98.60
3626;DHT22;1827;50.534;8.316;2022-07-29T00:10:34;17.30;98.20
3626;DHT22;1827;50.534;8.316;2022-07-29T00:13:01;17.30;98.40
3626;DHT22;1827;50.534;8.316;2022-07-29T00:15:27;17.20;97.90
3626;DHT22;1827;50.534;8.316;2022-07-29T00:17:53;17.10;98.20
3626;DHT22;1827;50.534;8.316;2022-07-29T00:20:19;17.10;98.00
3626;DHT22;1827;50.534;8.316;2022-07-29T00:22:45;17.30;98.10
3626;DHT22;1827;50.534;8.316;2022-07-29T00:25:12;17.30;99.90
3626;DHT22;1827;50.534;8.316;2022-07-29T00:27:38;17.30;99.90
3626;DHT22;1827;50.534;8.316;2022-07-29T00:30:05;17.20;99.90
3626;DHT22;1827;50.534;8.316;2022-07-29T00:32:31;17.20;99.90
3626;DHT22;1827;50.534;8.316;2022-07-29T00:34:57;17.20;99.90
3626;DHT22;1827;50.534;8.316;2022-07-29T00:37:41;17.10;99.90
3626;DHT22;1827;50.534;8.316;2022-07-29T00:40:07;17.10;99.90
3626;DHT22;1827;50.534;8.316;2022-07-29T00:42:44;17.10;99.90
3626;DHT22;1827;50.534;8.316;2022-07-29T00:45:11;17.10;99.90
3626;DHT22;1827;50.534;8.316;2022-07-29T00:47:38;17.10;99.90
3626;DHT22;1827;50.534;8.316;2022-07-29T00:50:06;17.00;99.90
3626;DHT22;1827;50.534;8.316;2022-07-29T00:52:33;16.90;99.90
3626;DHT22;1827;50.534;8.316;2022-07-29T00:54:59;16.90;99.90
3626;DHT22;1827;50.534;8.316;2022-07-29T00:57:25;17.10;99.90
3626;DHT22;1827;50.534;8.316;2022-07-29T00:59:51;17.10;99.90
3626;DHT22;1827;50.534;8.316;2022-07-29T01:02:17;17.10;99.90
3626;DHT22;1827;50.534;8.316;2022-07-29T01:04:42;17.20;99.90
3626;DHT22;1827;50.534;8.316;2022-07-29T01:07:08;17.00;99.90
3626;DHT22;1827;50.534;8.316;2022-07-29T01:09:36;16.70;99.90
3626;DHT22;1827;50.534;8.316;2022-07-29T01:12:03;16.80;99.90
3626;DHT22;1827;50.534;8.316;2022-07-29T01:14:30;16.80;99.90
3626;DHT22;1827;50.534;8.316;2022-07-29T01:17:06;16.90;99.90
3626;DHT22;1827;50.534;8.316;2022-07-29T01:25:19;16.80;99.90
3626;DHT22;1827;50.534;8.316;2022-07-29T01:28:01;16.90;99.90
3626;DHT22;1827;50.534;8.316;2022-07-29T01:30:30;16.90;99.90
3626;DHT22;1827;50.534;8.316;2022-07-29T01:33:02;16.90;99.90
3626;DHT22;1827;50.534;8.316;2022-07-29T01:35:38;17.00;99.90
3626;DHT22;1827;50.534;8.316;2022-07-29T01:38:25;17.00;99.90
3626;DHT22;1827;50.534;8.316;2022-07-29T01:40:58;16.80;99.90
3626;DHT22;1827;50.534;8.316;2022-07-29T01:43:42;16.80;99.90
3626;DHT22;1827;50.534;8.316;2022-07-29T01:46:13;16.90;99.90
3626;DHT22;1827;50.534;8.316;2022-07-29T01:48:48;16.90;99.90
3626;DHT22;1827;50.534;8.316;2022-07-29T01:51:25;17.00;99.90
3626;DHT22;1827;50.534;8.316;2022-07-29T01:56:24;16.90;99.90
3626;DHT22;1827;50.534;8.316;2022-07-29T01:58:55;16.80;99.90
3626;DHT22;1827;50.534;8.316;2022-07-29T02:01:24;16.70;99.90
3626;DHT22;1827;50.534;8.316;2022-07-29T02:03:53;16.60;99.90
3626;DHT22;1827;50.534;8.316;2022-07-29T02:06:22;16.50;99.90
3626;DHT22;1827;50.534;8.316;2022-07-29T02:08:49;16.50;99.90
3626;DHT22;1827;50.534;8.316;2022-07-29T02:11:17;16.40;99.90
3626;DHT22;1827;50.534;8.316;2022-07-29T02:13:44;16.50;99.90
3626;DHT22;1827;50.534;8.316;2022-07-29T02:16:12;16.50;99.90
3626;DHT22;1827;50.534;8.316;2022-07-29T02:18:40;16.40;99.90
3626;DHT22;1827;50.534;8.316;2022-07-29T02:21:09;16.30;99.90
3626;DHT22;1827;50.534;8.316;2022-07-29T02:23:37;16.40;99.90
3626;DHT22;1827;50.534;8.316;2022-07-29T02:26:05;16.30;99.90
3626;DHT22;1827;50.534;8.316;2022-07-29T02:28:33;16.20;99.90
3626;DHT22;1827;50.534;8.316;2022-07-29T02:31:01;16.30;99.90
3626;DHT22;1827;50.534;8.316;2022-07-29T02:33:28;16.30;99.90
3626;DHT22;1827;50.534;8.316;2022-07-29T02:35:57;16.30;99.90
3626;DHT22;1827;50.534;8.316;2022-07-29T02:38:25;16.30;99.90
3626;DHT22;1827;50.534;8.316;2022-07-29T02:41:13;16.20;99.90
3626;DHT22;1827;50.534;8.316;2022-07-29T02:43:43;16.20;99.90
3626;DHT22;1827;50.534;8.316;2022-07-29T02:46:14;16.30;99.90
3626;DHT22;1827;50.534;8.316;2022-07-29T02:48:50;16.30;99.90
3626;DHT22;1827;50.534;8.316;2022-07-29T02:51:23;16.30;99.90
3626;DHT22;1827;50.534;8.316;2022-07-29T02:53:53;16.30;99.90
3626;DHT22;1827;50.534;8.316;2022-07-29T02:56:25;16.20;99.90
3626;DHT22;1827;50.534;8.316;2022-07-29T02:58:58;16.10;99.90
3626;DHT22;1827;50.534;8.316;2022-07-29T03:01:31;16.00;99.90
3626;DHT22;1827;50.534;8.316;2022-07-29T03:04:01;16.00;99.90
3626;DHT22;1827;50.534;8.316;2022-07-29T03:06:28;16.00;99.90
3626;DHT22;1827;50.534;8.316;2022-07-29T03:08:57;15.80;99.90
3626;DHT22;1827;50.534;8.316;2022-07-29T03:11:24;15.90;99.90
3626;DHT22;1827;50.534;8.316;2022-07-29T03:13:51;15.80;99.90
3626;DHT22;1827;50.534;8.316;2022-07-29T03:16:19;15.70;99.90
3626;DHT22;1827;50.534;8.316;2022-07-29T03:18:45;15.70;99.90
3626;DHT22;1827;50.534;8.316;2022-07-29T03:21:10;15.70;99.90
3626;DHT22;1827;50.534;8.316;2022-07-29T03:23:36;15.70;99.90
3626;DHT22;1827;50.534;8.316;2022-07-29T03:26:02;15.70;99.90
3626;DHT22;1827;50.534;8.316;2022-07-29T03:28:29;15.70;99.90
3626;DHT22;1827;50.534;8.316;2022-07-29T03:30:55;15.60;99.90
3626;DHT22;1827;50.534;8.316;2022-07-29T03:33:21;15.40;99.90
3626;DHT22;1827;50.534;8.316;2022-07-29T03:35:46;15.30;99.90
3626;DHT22;1827;50.534;8.316;2022-07-29T03:38:12;15.10;99.90
3626;DHT22;1827;50.534;8.316;2022-07-29T03:40:45;15.10;99.90
3626;DHT22;1827;50.534;8.316;2022-07-29T03:43:13;15.10;99.90
3626;DHT22;1827;50.534;8.316;2022-07-29T03:45:42;15.10;99.90
3626;DHT22;1827;50.534;8.316;2022-07-29T03:48:14;15.10;99.90
3626;DHT22;1827;50.534;8.316;2022-07-29T03:50:40;15.00;99.90
3626;DHT22;1827;50.534;8.316;2022-07-29T03:53:07;14.90;99.90
3626;DHT22;1827;50.534;8.316;2022-07-29T03:55:37;14.80;99.90
3626;DHT22;1827;50.534;8.316;2022-07-29T03:58:06;14.80;99.90
3626;DHT22;1827;50.534;8.316;2022-07-29T04:00:34;14.80;99.90
3626;DHT22;1827;50.534;8.316;2022-07-29T04:03:01;14.70;99.90
3626;DHT22;1827;50.534;8.316;2022-07-29T04:05:27;14.60;99.90
3626;DHT22;1827;50.534;8.316;2022-07-29T04:07:53;14.70;99.90
3626;DHT22;1827;50.534;8.316;2022-07-29T04:10:19;14.70;99.90
3626;DHT22;1827;50.534;8.316;2022-07-29T04:12:45;14.60;99.90
3626;DHT22;1827;50.534;8.316;2022-07-29T04:15:11;14.50;99.90
3626;DHT22;1827;50.534;8.316;2022-07-29T04:17:37;14.50;99.90
3626;DHT22;1827;50.534;8.316;2022-07-29T04:20:04;14.50;99.90
3626;DHT22;1827;50.534;8.316;2022-07-29T04:22:30;14.50;99.90
3626;DHT22;1827;50.534;8.316;2022-07-29T04:24:56;14.40;99.90
3626;DHT22;1827;50.534;8.316;2022-07-29T04:27:22;14.40;99.90
3626;DHT22;1827;50.534;8.316;2022-07-29T04:29:47;14.50;99.90
3626;DHT22;1827;50.534;8.316;2022-07-29T04:32:13;14.40;99.90
3626;DHT22;1827;50.534;8.316;2022-07-29T04:34:39;14.40;99.90
3626;DHT22;1827;50.534;8.316;2022-07-29T04:37:05;14.50;99.90
3626;DHT22;1827;50.534;8.316;2022-07-29T04:39:31;14.40;99.90
3626;DHT22;1827;50.534;8.316;2022-07-29T04:41:57;14.40;99.90
3626;DHT22;1827;50.534;8.316;2022-07-29T04:44:22;14.20;99.90
3626;DHT22;1827;50.534;8.316;2022-07-29T04:46:48;14.20;99.90
3626;DHT22;1827;50.534;8.316;2022-07-29T04:49:14;14.20;99.90
3626;DHT22;1827;50.534;8.316;2022-07-29T04:51:40;14.20;99.90
3626;DHT22;1827;50.534;8.316;2022-07-29T04:54:05;14.10;99.90
3626;DHT22;1827;50.534;8.316;2022-07-29T04:56:31;14.10;99.90
3626;DHT22;1827;50.534;8.316;2022-07-29T04:58:57;14.00;99.90
3626;DHT22;1827;50.534;8.316;2022-07-29T05:01:23;13.90;99.90
3626;DHT22;1827;50.534;8.316;2022-07-29T05:03:49;14.00;99.90
3626;DHT22;1827;50.534;8.316;2022-07-29T05:06:15;14.00;99.90
3626;DHT22;1827;50.534;8.316;2022-07-29T05:08:41;14.20;99.90
3626;DHT22;1827;50.534;8.316;2022-07-29T05:11:06;14.30;99.90
3626;DHT22;1827;50.534;8.316;2022-07-29T05:13:32;14.50;99.90
3626;DHT22;1827;50.534;8.316;2022-07-29T05:15:58;14.70;99.90
3626;DHT22;1827;50.534;8.316;2022-07-29T05:18:25;14.80;99.90
3626;DHT22;1827;50.534;8.316;2022-07-29T05:20:51;14.80;99.90
3626;DHT22;1827;50.534;8.316;2022-07-29T05:23:17;14.80;99.90
3626;DHT22;1827;50.534;8.316;2022-07-29T05:25:43;14.70;99.90
3626;DHT22;1827;50.534;8.316;2022-07-29T05:28:09;14.80;99.90
3626;DHT22;1827;50.534;8.316;2022-07-29T05:30:35;15.00;99.90
3626;DHT22;1827;50.534;8.316;2022-07-29T05:33:00;15.00;99.90
3626;DHT22;1827;50.534;8.316;2022-07-29T05:35:26;15.10;99.90
3626;DHT22;1827;50.534;8.316;2022-07-29T05:37:52;15.30;99.90
3626;DHT22;1827;50.534;8.316;2022-07-29T05:40:18;15.40;99.90
3626;DHT22;1827;50.534;8.316;2022-07-29T05:42:43;15.60;99.90
3626;DHT22;1827;50.534;8.316;2022-07-29T05:45:09;15.70;99.90
3626;DHT22;1827;50.534;8.316;2022-07-29T05:47:35;15.60;99.90
3626;DHT22;1827;50.534;8.316;2022-07-29T05:50:01;15.70;99.90
3626;DHT22;1827;50.534;8.316;2022-07-29T05:52:27;15.90;99.90
3626;DHT22;1827;50.534;8.316;2022-07-29T05:54:53;16.10;99.90
3626;DHT22;1827;50.534;8.316;2022-07-29T05:57:21;16.30;99.90
3626;DHT22;1827;50.534;8.316;2022-07-29T05:59:48;16.60;99.90
3626;DHT22;1827;50.534;8.316;2022-07-29T06:02:14;16.90;99.90
3626;DHT22;1827;50.534;8.316;2022-07-29T06:04:40;17.30;99.90
3626;DHT22;1827;50.534;8.316;2022-07-29T06:07:06;17.50;99.90
3626;DHT22;1827;50.534;8.316;2022-07-29T06:09:33;18.00;99.90
3626;DHT22;1827;50.534;8.316;2022-07-29T06:11:59;18.10;99.90
3626;DHT22;1827;50.534;8.316;2022-07-29T06:14:25;18.10;99.90
3626;DHT22;1827;50.534;8.316;2022-07-29T06:16:52;18.60;99.90
3626;DHT22;1827;50.534;8.316;2022-07-29T06:19:18;18.70;99.90
3626;DHT22;1827;50.534;8.316;2022-07-29T06:21:47;18.80;99.90
3626;DHT22;1827;50.534;8.316;2022-07-29T06:24:14;18.70;99.90
3626;DHT22;1827;50.534;8.316;2022-07-29T06:26:41;19.50;99.90
3626;DHT22;1827;50.534;8.316;2022-07-29T06:29:07;19.70;99.90
3626;DHT22;1827;50.534;8.316;2022-07-29T06:31:33;20.50;99.90
3626;DHT22;1827;50.534;8.316;2022-07-29T06:33:59;20.20;99.90
3626;DHT22;1827;50.534;8.316;2022-07-29T06:36:25;20.80;99.90
3626;DHT22;1827;50.534;8.316;2022-07-29T06:38:51;21.30;99.90
3626;DHT22;1827;50.534;8.316;2022-07-29T06:41:17;21.60;99.90
3626;DHT22;1827;50.534;8.316;2022-07-29T06:43:44;20.40;99.90
3626;DHT22;1827;50.534;8.316;2022-07-29T06:46:15;19.90;99.90
3626;DHT22;1827;50.534;8.316;2022-07-29T06:48:44;19.90;99.90
3626;DHT22;1827;50.534;8.316;2022-07-29T06:51:11;19.90;99.90
3626;DHT22;1827;50.534;8.316;2022-07-29T06:53:37;19.60;99.90
3626;DHT22;1827;50.534;8.316;2022-07-29T06:56:04;19.60;99.90
3626;DHT22;1827;50.534;8.316;2022-07-29T06:58:31;19.40;99.90
3626;DHT22;1827;50.534;8.316;2022-07-29T07:00:58;19.70;99.90
3626;DHT22;1827;50.534;8.316;2022-07-29T07:03:24;19.90;99.90
3626;DHT22;1827;50.534;8.316;2022-07-29T07:05:52;20.10;99.90
3626;DHT22;1827;50.534;8.316;2022-07-29T07:08:19;19.70;99.90
3626;DHT22;1827;50.534;8.316;2022-07-29T07:10:46;20.10;99.90
3626;DHT22;1827;50.534;8.316;2022-07-29T07:13:12;20.10;99.90
3626;DHT22;1827;50.534;8.316;2022-07-29T07:15:38;20.20;99.90
3626;DHT22;1827;50.534;8.316;2022-07-29T07:18:05;20.30;99.90
3626;DHT22;1827;50.534;8.316;2022-07-29T07:20:32;20.40;99.90
3626;DHT22;1827;50.534;8.316;2022-07-29T07:22:58;20.50;99.90
3626;DHT22;1827;50.534;8.316;2022-07-29T07:25:24;21.20;99.90
3626;DHT22;1827;50.534;8.316;2022-07-29T07:27:50;21.90;99.90
3626;DHT22;1827;50.534;8.316;2022-07-29T07:30:15;22.70;99.90
3626;DHT22;1827;50.534;8.316;2022-07-29T07:32:42;22.80;99.90
3626;DHT22;1827;50.534;8.316;2022-07-29T07:35:09;22.30;99.90
3626;DHT22;1827;50.534;8.316;2022-07-29T07:37:36;22.60;99.90
3626;DHT22;1827;50.534;8.316;2022-07-29T07:40:03;23.90;99.90
3626;DHT22;1827;50.534;8.316;2022-07-29T07:42:29;22.50;99.90
3626;DHT22;1827;50.534;8.316;2022-07-29T07:44:55;23.60;99.90
3626;DHT22;1827;50.534;8.316;2022-07-29T07:47:21;24.00;99.90
3626;DHT22;1827;50.534;8.316;2022-07-29T07:49:52;23.10;99.90
3626;DHT22;1827;50.534;8.316;2022-07-29T07:52:20;23.30;99.90
3626;DHT22;1827;50.534;8.316;2022-07-29T07:54:46;24.00;99.90
3626;DHT22;1827;50.534;8.316;2022-07-29T07:57:13;23.80;99.90
3626;DHT22;1827;50.534;8.316;2022-07-29T07:59:39;24.40;99.90
3626;DHT22;1827;50.534;8.316;2022-07-29T08:02:05;23.70;99.90
3626;DHT22;1827;50.534;8.316;2022-07-29T08:04:31;24.50;99.90
3626;DHT22;1827;50.534;8.316;2022-07-29T08:06:57;24.50;99.90
3626;DHT22;1827;50.534;8.316;2022-07-29T08:09:25;25.20;99.90
3626;DHT22;1827;50.534;8.316;2022-07-29T08:11:51;24.20;99.90
3626;DHT22;1827;50.534;8.316;2022-07-29T08:14:17;24.20;99.90
3626;DHT22;1827;50.534;8.316;2022-07-29T08:16:43;23.90;99.90
3626;DHT22;1827;50.534;8.316;2022-07-29T08:19:09;24.00;99.90
3626;DHT22;1827;50.534;8.316;2022-07-29T08:21:35;25.10;99.90
3626;DHT22;1827;50.534;8.316;2022-07-29T08:24:01;25.30;99.20
3626;DHT22;1827;50.534;8.316;2022-07-29T08:26:46;25.70;99.90
3626;DHT22;1827;50.534;8.316;2022-07-29T08:29:12;25.00;99.90
3626;DHT22;1827;50.534;8.316;2022-07-29T08:31:40;26.40;98.60
3626;DHT22;1827;50.534;8.316;2022-07-29T08:34:06;27.00;99.60
3626;DHT22;1827;50.534;8.316;2022-07-29T08:36:33;27.00;98.60
3626;DHT22;1827;50.534;8.316;2022-07-29T08:39:00;26.10;97.90
3626;DHT22;1827;50.534;8.316;2022-07-29T08:41:26;25.90;99.20
3626;DHT22;1827;50.534;8.316;2022-07-29T08:43:52;26.90;97.40
3626;DHT22;1827;50.534;8.316;2022-07-29T08:46:19;27.20;96.40
3626;DHT22;1827;50.534;8.316;2022-07-29T08:48:45;27.70;96.50
3626;DHT22;1827;50.534;8.316;2022-07-29T08:51:16;27.20;96.20
3626;DHT22;1827;50.534;8.316;2022-07-29T08:53:43;26.10;98.40
3626;DHT22;1827;50.534;8.316;2022-07-29T08:56:14;26.30;98.60
3626;DHT22;1827;50.534;8.316;2022-07-29T08:58:42;27.10;97.00
3626;DHT22;1827;50.534;8.316;2022-07-29T09:01:09;26.90;97.70
3626;DHT22;1827;50.534;8.316;2022-07-29T09:03:37;26.10;97.60
3626;DHT22;1827;50.534;8.316;2022-07-29T09:06:05;26.70;96.30
3626;DHT22;1827;50.534;8.316;2022-07-29T09:08:32;27.00;96.50
3626;DHT22;1827;50.534;8.316;2022-07-29T09:11:03;27.00;96.10
3626;DHT22;1827;50.534;8.316;2022-07-29T09:13:29;27.40;94.90
3626;DHT22;1827;50.534;8.316;2022-07-29T09:15:55;27.40;94.80
3626;DHT22;1827;50.534;8.316;2022-07-29T09:18:39;27.50;97.30
3626;DHT22;1827;50.534;8.316;2022-07-29T09:21:08;27.10;95.40
3626;DHT22;1827;50.534;8.316;2022-07-29T09:26:34;27.40;94.50
3626;DHT22;1827;50.534;8.316;2022-07-29T09:29:01;26.90;93.20
3626;DHT22;1827;50.534;8.316;2022-07-29T09:31:34;27.00;94.90
3626;DHT22;1827;50.534;8.316;2022-07-29T09:34:00;27.50;93.50
3626;DHT22;1827;50.534;8.316;2022-07-29T09:36:26;27.60;92.70
3626;DHT22;1827;50.534;8.316;2022-07-29T09:38:59;27.10;94.70
3626;DHT22;1827;50.534;8.316;2022-07-29T09:41:26;27.80;93.80
3626;DHT22;1827;50.534;8.316;2022-07-29T09:43:59;27.40;96.00
3626;DHT22;1827;50.534;8.316;2022-07-29T09:46:25;27.80;93.10
3626;DHT22;1827;50.534;8.316;2022-07-29T09:49:12;27.70;94.40
3626;DHT22;1827;50.534;8.316;2022-07-29T09:51:38;26.60;93.40
3626;DHT22;1827;50.534;8.316;2022-07-29T09:54:24;27.30;94.70
3626;DHT22;1827;50.534;8.316;2022-07-29T09:56:51;27.60;93.90
3626;DHT22;1827;50.534;8.316;2022-07-29T09:59:18;26.20;94.00
3626;DHT22;1827;50.534;8.316;2022-07-29T10:01:46;26.10;93.30
3626;DHT22;1827;50.534;8.316;2022-07-29T10:04:12;26.10;94.20
3626;DHT22;1827;50.534;8.316;2022-07-29T10:09:23;27.50;94.10
3626;DHT22;1827;50.534;8.316;2022-07-29T10:14:34;26.70;91.20
3626;DHT22;1827;50.534;8.316;2022-07-29T10:17:01;25.30;91.60
3626;DHT22;1827;50.534;8.316;2022-07-29T10:19:31;26.30;90.90
3626;DHT22;1827;50.534;8.316;2022-07-29T10:21:58;26.60;91.20
3626;DHT22;1827;50.534;8.316;2022-07-29T10:24:27;26.60;90.00
3626;DHT22;1827;50.534;8.316;2022-07-29T10:26:54;27.50;91.00
3626;DHT22;1827;50.534;8.316;2022-07-29T10:29:21;28.60;90.40
3626;DHT22;1827;50.534;8.316;2022-07-29T10:32:04;28.70;93.30
3626;DHT22;1827;50.534;8.316;2022-07-29T10:44:05;29.00;90.00
3626;DHT22;1827;50.534;8.316;2022-07-29T10:46:37;29.80;83.40
3626;DHT22;1827;50.534;8.316;2022-07-29T10:59:50;28.40;86.30
3626;DHT22;1827;50.534;8.316;2022-07-29T11:05:19;28.10;77.70
3626;DHT22;1827;50.534;8.316;2022-07-29T11:10:37;29.70;82.50
3626;DHT22;1827;50.534;8.316;2022-07-29T11:13:03;28.40;82.30
3626;DHT22;1827;50.534;8.316;2022-07-29T11:15:29;28.80;85.40
3626;DHT22;1827;50.534;8.316;2022-07-29T11:18:15;28.80;82.00
3626;DHT22;1827;50.534;8.316;2022-07-29T11:23:24;27.70;84.90
3626;DHT22;1827;50.534;8.316;2022-07-29T11:31:42;30.30;88.70
3626;DHT22;1827;50.534;8.316;2022-07-29T11:34:19;29.20;80.30
3626;DHT22;1827;50.534;8.316;2022-07-29T11:39:40;30.50;84.40
3626;DHT22;1827;50.534;8.316;2022-07-29T11:47:27;30.40;78.00
3626;DHT22;1827;50.534;8.316;2022-07-29T11:49:57;31.40;80.40
3626;DHT22;1827;50.534;8.316;2022-07-29T11:52:23;31.50;80.30
3626;DHT22;1827;50.534;8.316;2022-07-29T11:54:58;31.60;81.70
3626;DHT22;1827;50.534;8.316;2022-07-29T11:57:27;30.90;84.60
3626;DHT22;1827;50.534;8.316;2022-07-29T11:59:53;30.40;80.70
3626;DHT22;1827;50.534;8.316;2022-07-29T12:02:20;31.20;80.40
3626;DHT22;1827;50.534;8.316;2022-07-29T12:04:55;31.70;78.90
3626;DHT22;1827;50.534;8.316;2022-07-29T12:07:32;30.60;80.60
3626;DHT22;1827;50.534;8.316;2022-07-29T12:09:59;30.30;79.30
3626;DHT22;1827;50.534;8.316;2022-07-29T12:12:25;30.70;81.70
3626;DHT22;1827;50.534;8.316;2022-07-29T12:14:51;31.20;80.90
3626;DHT22;1827;50.534;8.316;2022-07-29T12:17:31;29.90;75.80
3626;DHT22;1827;50.534;8.316;2022-07-29T12:20:00;30.90;78.70
3626;DHT22;1827;50.534;8.316;2022-07-29T12:22:27;28.60;75.50
3626;DHT22;1827;50.534;8.316;2022-07-29T12:24:54;29.10;83.30
3626;DHT22;1827;50.534;8.316;2022-07-29T12:27:20;29.20;82.70
3626;DHT22;1827;50.534;8.316;2022-07-29T12:30:07;31.20;78.60
3626;DHT22;1827;50.534;8.316;2022-07-29T12:32:39;32.10;79.00
3626;DHT22;1827;50.534;8.316;2022-07-29T12:35:07;31.90;74.80
3626;DHT22;1827;50.534;8.316;2022-07-29T12:37:34;31.20;79.20
3626;DHT22;1827;50.534;8.316;2022-07-29T12:40:03;29.10;75.00
3626;DHT22;1827;50.534;8.316;2022-07-29T12:42:29;29.10;77.60
3626;DHT22;1827;50.534;8.316;2022-07-29T12:44:55;29.70;78.00
3626;DHT22;1827;50.534;8.316;2022-07-29T12:47:21;31.10;78.30
3626;DHT22;1827;50.534;8.316;2022-07-29T12:49:48;29.20;78.90
3626;DHT22;1827;50.534;8.316;2022-07-29T12:52:28;30.60;76.80
3626;DHT22;1827;50.534;8.316;2022-07-29T12:54:54;32.20;76.90
3626;DHT22;1827;50.534;8.316;2022-07-29T12:57:20;32.30;76.60
3626;DHT22;1827;50.534;8.316;2022-07-29T13:00:09;32.50;76.10
3626;DHT22;1827;50.534;8.316;2022-07-29T13:02:39;32.70;72.10
3626;DHT22;1827;50.534;8.316;2022-07-29T13:05:07;33.20;73.30
3626;DHT22;1827;50.534;8.316;2022-07-29T13:07:35;33.00;74.40
3626;DHT22;1827;50.534;8.316;2022-07-29T13:10:15;32.80;75.70
3626;DHT22;1827;50.534;8.316;2022-07-29T13:13:07;30.70;74.70
3626;DHT22;1827;50.534;8.316;2022-07-29T13:15:36;28.60;74.20
3626;DHT22;1827;50.534;8.316;2022-07-29T13:18:03;29.30;75.90
3626;DHT22;1827;50.534;8.316;2022-07-29T13:20:29;31.20;74.10
3626;DHT22;1827;50.534;8.316;2022-07-29T13:22:57;30.50;72.80
3626;DHT22;1827;50.534;8.316;2022-07-29T13:25:28;31.40;72.40
3626;DHT22;1827;50.534;8.316;2022-07-29T13:27:54;30.80;75.90
3626;DHT22;1827;50.534;8.316;2022-07-29T13:30:21;30.00;71.60
3626;DHT22;1827;50.534;8.316;2022-07-29T13:32:47;30.20;75.60
3626;DHT22;1827;50.534;8.316;2022-07-29T13:35:13;30.40;71.80
3626;DHT22;1827;50.534;8.316;2022-07-29T13:37:39;31.60;71.70
3626;DHT22;1827;50.534;8.316;2022-07-29T13:40:07;32.10;76.60
3626;DHT22;1827;50.534;8.316;2022-07-29T13:42:34;29.90;73.20
3626;DHT22;1827;50.534;8.316;2022-07-29T13:45:00;30.60;74.80
3626;DHT22;1827;50.534;8.316;2022-07-29T13:47:27;31.20;73.00
3626;DHT22;1827;50.534;8.316;2022-07-29T13:49:54;32.00;72.10
3626;DHT22;1827;50.534;8.316;2022-07-29T13:52:20;31.80;72.60
3626;DHT22;1827;50.534;8.316;2022-07-29T13:54:46;31.30;71.40
3626;DHT22;1827;50.534;8.316;2022-07-29T13:57:12;30.90;72.00
3626;DHT22;1827;50.534;8.316;2022-07-29T13:59:43;30.70;72.40
3626;DHT22;1827;50.534;8.316;2022-07-29T14:02:09;30.50;72.10
3626;DHT22;1827;50.534;8.316;2022-07-29T14:04:35;30.60;70.40
3626;DHT22;1827;50.534;8.316;2022-07-29T14:07:02;30.60;70.70
3626;DHT22;1827;50.534;8.316;2022-07-29T14:09:27;30.80;70.30
3626;DHT22;1827;50.534;8.316;2022-07-29T14:11:53;30.80;70.40
3626;DHT22;1827;50.534;8.316;2022-07-29T14:14:19;30.70;72.80
3626;DHT22;1827;50.534;8.316;2022-07-29T14:16:45;30.80;73.40
3626;DHT22;1827;50.534;8.316;2022-07-29T14:19:11;30.00;74.10
3626;DHT22;1827;50.534;8.316;2022-07-29T14:21:37;29.50;73.20
3626;DHT22;1827;50.534;8.316;2022-07-29T14:24:04;29.20;73.30
3626;DHT22;1827;50.534;8.316;2022-07-29T14:26:30;29.10;75.70
3626;DHT22;1827;50.534;8.316;2022-07-29T14:28:55;28.90;78.20
3626;DHT22;1827;50.534;8.316;2022-07-29T14:31:21;28.90;76.80
3626;DHT22;1827;50.534;8.316;2022-07-29T14:33:47;28.60;77.40
3626;DHT22;1827;50.534;8.316;2022-07-29T14:36:13;28.40;78.50
3626;DHT22;1827;50.534;8.316;2022-07-29T14:38:39;28.10;78.30
3626;DHT22;1827;50.534;8.316;2022-07-29T14:41:07;27.80;79.10
3626;DHT22;1827;50.534;8.316;2022-07-29T14:43:34;27.00;80.10
3626;DHT22;1827;50.534;8.316;2022-07-29T14:46:00;26.50;80.50
3626;DHT22;1827;50.534;8.316;2022-07-29T14:48:27;26.10;85.10
3626;DHT22;1827;50.534;8.316;2022-07-29T14:50:53;25.70;90.20
3626;DHT22;1827;50.534;8.316;2022-07-29T14:53:22;25.50;93.90
3626;DHT22;1827;50.534;8.316;2022-07-29T14:55:48;25.10;97.20
3626;DHT22;1827;50.534;8.316;2022-07-29T14:58:14;24.60;99.40
3626;DHT22;1827;50.534;8.316;2022-07-29T15:00:40;24.10;99.90
3626;DHT22;1827;50.534;8.316;2022-07-29T15:03:06;23.60;99.90
3626;DHT22;1827;50.534;8.316;2022-07-29T15:05:34;23.30;99.90
3626;DHT22;1827;50.534;8.316;2022-07-29T15:08:00;22.90;99.90
3626;DHT22;1827;50.534;8.316;2022-07-29T15:10:26;21.60;99.90
3626;DHT22;1827;50.534;8.316;2022-07-29T15:12:53;21.90;99.90
3626;DHT22;1827;50.534;8.316;2022-07-29T15:15:19;22.40;99.90
3626;DHT22;1827;50.534;8.316;2022-07-29T15:17:45;22.60;99.90
3626;DHT22;1827;50.534;8.316;2022-07-29T15:20:11;23.10;99.90
3626;DHT22;1827;50.534;8.316;2022-07-29T15:22:37;23.70;99.90
3626;DHT22;1827;50.534;8.316;2022-07-29T15:25:04;23.20;99.90
3626;DHT22;1827;50.534;8.316;2022-07-29T15:27:30;23.80;99.90
3626;DHT22;1827;50.534;8.316;2022-07-29T15:29:56;23.80;99.90
3626;DHT22;1827;50.534;8.316;2022-07-29T15:32:22;23.90;99.90
3626;DHT22;1827;50.534;8.316;2022-07-29T15:34:48;24.00;99.90
3626;DHT22;1827;50.534;8.316;2022-07-29T15:37:14;23.70;99.90
3626;DHT22;1827;50.534;8.316;2022-07-29T15:39:40;24.70;99.90
3626;DHT22;1827;50.534;8.316;2022-07-29T15:42:06;23.60;99.90
3626;DHT22;1827;50.534;8.316;2022-07-29T15:44:32;23.90;99.90
3626;DHT22;1827;50.534;8.316;2022-07-29T15:46:58;23.90;99.90
3626;DHT22;1827;50.534;8.316;2022-07-29T15:49:38;24.30;99.90
3626;DHT22;1827;50.534;8.316;2022-07-29T15:52:06;24.80;99.90
3626;DHT22;1827;50.534;8.316;2022-07-29T15:54:34;24.90;99.90
3626;DHT22;1827;50.534;8.316;2022-07-29T15:57:00;24.90;99.90
3626;DHT22;1827;50.534;8.316;2022-07-29T15:59:26;24.70;99.90
3626;DHT22;1827;50.534;8.316;2022-07-29T16:01:52;24.70;99.90
3626;DHT22;1827;50.534;8.316;2022-07-29T16:04:18;24.60;99.90
3626;DHT22;1827;50.534;8.316;2022-07-29T16:06:45;24.70;99.90
3626;DHT22;1827;50.534;8.316;2022-07-29T16:09:12;24.90;99.90
3626;DHT22;1827;50.534;8.316;2022-07-29T16:11:39;25.10;99.90
3626;DHT22;1827;50.534;8.316;2022-07-29T16:14:05;25.70;99.90
3626;DHT22;1827;50.534;8.316;2022-07-29T16:16:31;26.10;99.90
3626;DHT22;1827;50.534;8.316;2022-07-29T16:18:57;26.60;99.90
3626;DHT22;1827;50.534;8.316;2022-07-29T16:21:23;26.70;99.90
3626;DHT22;1827;50.534;8.316;2022-07-29T16:23:49;26.70;99.90
3626;DHT22;1827;50.534;8.316;2022-07-29T16:26:15;26.90;99.90
3626;DHT22;1827;50.534;8.316;2022-07-29T16:28:41;26.70;99.90
3626;DHT22;1827;50.534;8.316;2022-07-29T16:31:07;26.60;99.90
3626;DHT22;1827;50.534;8.316;2022-07-29T16:33:33;26.50;99.90
3626;DHT22;1827;50.534;8.316;2022-07-29T16:35:59;26.60;99.90
3626;DHT22;1827;50.534;8.316;2022-07-29T16:38:25;26.50;99.90
3626;DHT22;1827;50.534;8.316;2022-07-29T16:40:51;26.50;99.90
3626;DHT22;1827;50.534;8.316;2022-07-29T16:43:17;26.40;99.90
3626;DHT22;1827;50.534;8.316;2022-07-29T16:45:43;26.10;99.90
3626;DHT22;1827;50.534;8.316;2022-07-29T16:48:09;25.70;99.90
3626;DHT22;1827;50.534;8.316;2022-07-29T16:50:35;25.50;99.90
3626;DHT22;1827;50.534;8.316;2022-07-29T16:53:01;25.40;99.90
3626;DHT22;1827;50.534;8.316;2022-07-29T16:55:27;25.50;99.90
3626;DHT22;1827;50.534;8.316;2022-07-29T16:57:52;25.30;99.90
3626;DHT22;1827;50.534;8.316;2022-07-29T17:00:19;24.70;99.90
3626;DHT22;1827;50.534;8.316;2022-07-29T17:02:45;24.90;99.90
3626;DHT22;1827;50.534;8.316;2022-07-29T17:05:11;24.80;99.90